createdAt,value
2019-01-03T00:00:46.584Z,3.35
2019-01-03T00:03:20.736Z,1.32
2019-01-03T00:05:55.976Z,1.22
2019-01-03T00:08:35.200Z,1.35
2019-01-03T00:11:06.799Z,1.25
2019-01-03T00:13:50.237Z,3.40
2019-01-03T00:16:21.672Z,8.70
2019-01-03T00:19:24.268Z,1.55
2019-01-03T00:22:13.864Z,1.70
2019-01-03T00:24:48.192Z,0.88
2019-01-03T00:27:22.363Z,6.55
2019-01-03T00:30:09.908Z,2.35
2019-01-03T00:32:59.560Z,2.83
2019-01-03T00:35:55.099Z,6.05
2019-01-03T00:38:34.532Z,5.22
2019-01-03T00:41:06.512Z,1.25
2019-01-03T00:43:54.293Z,3.77
2019-01-03T00:46:30.295Z,1.25
2019-01-03T00:49:05.086Z,2.47
2019-01-03T00:51:39.699Z,4.20
2019-01-03T00:54:29.792Z,2.65
2019-01-03T00:57:13.204Z,2.87
2019-01-03T00:59:58.920Z,1.47
2019-01-03T01:02:50.082Z,3.58
2019-01-03T01:05:32.376Z,4.00
2019-01-03T01:08:19.939Z,2.87
2019-01-03T01:10:57.336Z,1.52
2019-01-03T01:13:40.491Z,0.80
2019-01-03T01:16:14.896Z,1.02
2019-01-03T01:19:03.787Z,3.02
2019-01-03T01:21:38.116Z,2.40
2019-01-03T01:24:26.199Z,3.45
2019-01-03T01:26:58.958Z,1.05
2019-01-03T01:29:30.704Z,3.98
2019-01-03T01:32:25.694Z,1.05
2019-01-03T01:35:15.040Z,1.15
2019-01-03T01:37:49.403Z,1.12
2019-01-03T01:40:20.745Z,2.62
2019-01-03T01:42:55.516Z,5.28
2019-01-03T01:45:34.216Z,4.53
2019-01-03T01:48:07.539Z,2.15
2019-01-03T01:50:42.808Z,5.17
2019-01-03T01:54:26.004Z,1.00
2019-01-03T01:57:18.596Z,6.70
2019-01-03T02:00:06.900Z,1.67
2019-01-03T02:02:41.652Z,0.68
2019-01-03T02:05:30.864Z,2.15
2019-01-03T02:08:09.372Z,4.72
2019-01-03T02:10:50.289Z,9.60
2019-01-03T02:13:36.728Z,3.00
2019-01-03T02:16:23.244Z,3.90
2019-01-03T02:19:04.940Z,2.85
2019-01-03T02:21:51.048Z,3.80
2019-01-03T02:24:44.640Z,1.90
2019-01-03T02:27:25.840Z,1.62
2019-01-03T02:30:09.245Z,0.80
2019-01-03T02:32:59.030Z,2.15
2019-01-03T02:35:39.763Z,17.10
2019-01-03T02:38:19.532Z,1.05
2019-01-03T02:41:08.391Z,4.37
2019-01-03T02:43:50.006Z,4.55
2019-01-03T02:46:21.569Z,5.85
2019-01-03T02:49:10.094Z,1.77
2019-01-03T02:51:51.264Z,2.55
2019-01-03T02:54:23.684Z,0.93
2019-01-03T02:57:00.992Z,0.98
2019-01-03T02:59:50.196Z,6.08
2019-01-03T03:02:22.758Z,6.53
2019-01-03T03:05:10.449Z,2.85
2019-01-03T03:07:46.070Z,1.57
2019-01-03T03:10:17.819Z,1.02
2019-01-03T03:13:07.612Z,1.05
2019-01-03T03:16:02.016Z,2.87
2019-01-03T03:18:49.609Z,2.00
2019-01-03T03:21:24.734Z,5.55
2019-01-03T03:24:08.213Z,4.05
2019-01-03T03:26:43.717Z,2.47
2019-01-03T03:29:31.461Z,2.10
2019-01-03T03:32:19.209Z,1.30
2019-01-03T03:34:56.581Z,2.05
2019-01-03T03:37:44.600Z,1.65
2019-01-03T03:40:34.509Z,2.60
2019-01-03T03:43:23.265Z,2.15
2019-01-03T03:45:57.754Z,8.18
2019-01-03T03:48:36.707Z,2.25
2019-01-03T03:51:23.298Z,1.55
2019-01-03T03:54:11.200Z,5.80
2019-01-03T03:57:04.944Z,1.05
2019-01-03T03:59:39.028Z,4.30
2019-01-03T04:02:10.774Z,8.05
2019-01-03T04:04:58.585Z,1.57
2019-01-03T04:07:33.937Z,5.70
2019-01-03T04:10:10.309Z,5.33
2019-01-03T04:12:58.251Z,2.67
2019-01-03T04:15:30.668Z,0.60
2019-01-03T04:18:02.272Z,1.85
2019-01-03T04:20:36.445Z,2.67
2019-01-03T04:23:24.585Z,4.62
2019-01-03T04:26:11.384Z,2.35
2019-01-03T04:28:52.182Z,4.45
2019-01-03T04:31:23.640Z,6.47
2019-01-03T04:34:02.924Z,4.47
2019-01-03T04:36:39.147Z,6.08
2019-01-03T04:39:35.932Z,4.95
2019-01-03T04:42:19.456Z,0.50
2019-01-03T04:44:56.808Z,5.10
2019-01-03T04:47:37.410Z,3.35
2019-01-03T04:50:20.975Z,2.15
2019-01-03T04:53:12.040Z,1.00
2019-01-03T04:55:43.793Z,0.70
2019-01-03T04:58:18.492Z,1.47
2019-01-03T05:00:56.032Z,0.60
2019-01-03T05:03:34.054Z,0.93
2019-01-03T05:06:18.488Z,3.90
2019-01-03T05:08:58.904Z,4.42
2019-01-03T05:11:34.176Z,2.90
2019-01-03T05:14:31.444Z,1.52
2019-01-03T05:17:06.524Z,4.00
2019-01-03T05:19:41.198Z,1.57
2019-01-03T05:22:16.573Z,5.10
2019-01-03T05:24:48.572Z,6.03
2019-01-03T05:27:36.802Z,2.90
2019-01-03T05:30:40.496Z,1.02
2019-01-03T05:33:30.791Z,6.95
2019-01-03T05:36:14.230Z,2.05
2019-01-03T05:39:03.533Z,6.33
2019-01-03T05:41:41.168Z,13.20
2019-01-03T05:44:29.193Z,7.00
2019-01-03T05:47:05.740Z,4.25
2019-01-03T05:49:49.120Z,1.47
2019-01-03T05:52:20.850Z,4.10
2019-01-03T05:54:55.706Z,0.80
2019-01-03T05:57:39.372Z,4.20
2019-01-03T06:00:29.052Z,5.28
2019-01-03T06:03:08.749Z,1.37
2019-01-03T06:06:05.627Z,6.22
2019-01-03T06:08:41.372Z,1.90
2019-01-03T06:11:14.099Z,0.78
2019-01-03T06:13:54.667Z,0.98
2019-01-03T06:16:35.125Z,1.37
2019-01-03T06:19:30.260Z,0.60
2019-01-03T06:22:14.972Z,0.70
2019-01-03T06:25:02.821Z,12.25
2019-01-03T06:27:58.184Z,1.85
2019-01-03T06:30:42.496Z,13.35
2019-01-03T06:33:25.822Z,3.25
2019-01-03T06:36:06.294Z,2.55
2019-01-03T06:38:52.868Z,1.72
2019-01-03T06:41:34.108Z,7.80
2019-01-03T06:44:08.305Z,2.17
2019-01-03T06:46:43.584Z,5.28
2019-01-03T06:49:18.967Z,11.28
2019-01-03T06:52:05.817Z,5.72
2019-01-03T06:54:54.639Z,1.80
2019-01-03T06:57:26.128Z,2.05
2019-01-03T07:00:05.444Z,1.77
2019-01-03T07:02:40.041Z,1.45
2019-01-03T07:05:26.584Z,2.15
2019-01-03T07:08:07.291Z,1.02
2019-01-03T07:10:39.028Z,0.60
2019-01-03T07:13:19.885Z,4.10
2019-01-03T07:16:07.145Z,2.08
2019-01-03T07:18:55.748Z,1.50
2019-01-03T07:21:27.593Z,2.15
2019-01-03T07:24:09.144Z,2.25
2019-01-03T07:26:43.864Z,10.15
2019-01-03T07:29:31.444Z,7.35
2019-01-03T07:32:14.934Z,9.75
2019-01-03T07:34:49.110Z,9.33
2019-01-03T07:37:24.507Z,6.37
2019-01-03T07:40:11.598Z,4.90
2019-01-03T07:42:43.206Z,8.30
2019-01-03T07:45:15.485Z,3.58
2019-01-03T07:47:46.984Z,4.22
2019-01-03T07:50:25.994Z,2.25
2019-01-03T07:53:00.128Z,7.75
2019-01-03T07:55:34.512Z,4.65
2019-01-03T07:58:06.332Z,2.15
2019-01-03T08:00:55.370Z,1.40
2019-01-03T08:03:43.718Z,2.50
2019-01-03T08:06:25.201Z,3.90
2019-01-03T08:08:59.857Z,4.80
2019-01-03T08:11:34.046Z,5.40
2019-01-03T08:14:22.062Z,4.40
2019-01-03T08:17:10.200Z,2.75
2019-01-03T08:19:58.047Z,12.28
2019-01-03T08:22:41.292Z,3.95
2019-01-03T08:25:18.714Z,4.33
2019-01-03T08:28:06.268Z,6.75
2019-01-03T08:30:52.188Z,3.87
2019-01-03T08:33:36.400Z,8.50
2019-01-03T08:36:07.740Z,4.58
2019-01-03T08:38:45.748Z,5.35
2019-01-03T08:41:32.051Z,3.85
2019-01-03T08:44:08.512Z,1.47
2019-01-03T08:46:49.020Z,1.27
2019-01-03T08:49:20.746Z,5.28
2019-01-03T08:51:52.492Z,2.40
2019-01-03T08:54:40.015Z,4.05
2019-01-03T08:57:15.288Z,4.97
2019-01-03T08:59:49.733Z,10.63
2019-01-03T09:02:21.496Z,3.65
2019-01-03T09:04:52.956Z,7.33
2019-01-03T09:07:41.954Z,1.77
2019-01-03T09:10:13.784Z,2.80
2019-01-03T09:13:02.527Z,4.95
2019-01-03T09:15:34.254Z,17.07
2019-01-03T09:18:09.545Z,5.35
2019-01-03T09:20:58.204Z,4.55
2019-01-03T09:23:35.966Z,3.95
2019-01-03T09:26:10.604Z,3.95
2019-01-03T09:28:42.081Z,17.62
2019-01-03T09:31:37.689Z,9.35
2019-01-03T09:34:09.277Z,13.98
2019-01-03T09:36:52.564Z,18.77
2019-01-03T09:39:33.388Z,1.45
2019-01-03T09:42:17.829Z,4.65
2019-01-03T09:44:49.192Z,7.42
2019-01-03T09:47:19.820Z,6.08
2019-01-03T09:49:57.658Z,8.68
2019-01-03T09:52:27.749Z,13.78
2019-01-03T09:54:58.572Z,2.27
2019-01-03T09:57:40.292Z,5.47
2019-01-03T10:00:10.798Z,1.17
2019-01-03T10:02:42.796Z,2.98
2019-01-03T10:05:12.894Z,7.92
2019-01-03T10:07:43.962Z,1.32
2019-01-03T10:10:13.832Z,4.80
2019-01-03T10:12:45.472Z,2.00
2019-01-03T10:15:15.437Z,3.65
2019-01-03T10:17:45.524Z,3.85
2019-01-03T10:20:18.644Z,5.75
2019-01-03T10:22:48.736Z,1.00
2019-01-03T10:25:27.876Z,4.83
2019-01-03T10:28:00.006Z,7.22
2019-01-03T10:30:29.829Z,2.25
2019-01-03T10:32:59.797Z,0.98
2019-01-03T10:35:29.647Z,11.55
2019-01-03T10:38:01.413Z,3.22
2019-01-03T10:40:31.092Z,1.52
2019-01-03T10:43:00.824Z,3.25
2019-01-03T10:45:31.722Z,1.30
2019-01-03T10:48:02.740Z,2.20
2019-01-03T10:50:39.616Z,5.62
2019-01-03T10:53:13.493Z,5.42
2019-01-03T10:55:43.516Z,2.15
2019-01-03T10:58:19.352Z,6.47
2019-01-03T11:00:53.314Z,10.00
2019-01-03T11:03:23.481Z,1.87
2019-01-03T11:05:55.486Z,4.83
2019-01-03T11:08:25.304Z,4.17
2019-01-03T11:10:55.266Z,3.35
2019-01-03T11:13:25.092Z,6.70
2019-01-03T11:15:55.744Z,2.22
2019-01-03T11:18:25.696Z,4.90
2019-01-03T11:20:56.028Z,2.95
2019-01-03T11:23:26.124Z,3.50
2019-01-03T11:25:56.242Z,4.75
2019-01-03T11:28:26.316Z,11.75
2019-01-03T11:30:56.275Z,2.37
2019-01-03T11:33:26.356Z,8.93
2019-01-03T11:35:59.048Z,14.45
2019-01-03T11:38:29.130Z,7.05
2019-01-03T11:40:59.208Z,5.22
2019-01-03T11:43:29.016Z,3.98
2019-01-03T11:45:59.724Z,7.78
2019-01-03T11:48:29.681Z,3.70
2019-01-03T11:50:59.778Z,10.10
2019-01-03T11:53:33.872Z,13.78
2019-01-03T11:56:04.002Z,5.00
2019-01-03T11:58:36.877Z,4.10
2019-01-03T12:01:07.572Z,8.15
2019-01-03T12:03:37.526Z,3.83
2019-01-03T12:06:08.600Z,2.90
2019-01-03T12:08:38.698Z,4.42
2019-01-03T12:11:09.540Z,2.35
2019-01-03T12:13:39.276Z,7.05
2019-01-03T12:16:18.052Z,1.17
2019-01-03T12:18:47.812Z,4.60
2019-01-03T12:21:17.766Z,2.40
2019-01-03T12:23:47.874Z,3.55
2019-01-03T12:26:17.692Z,6.22
2019-01-03T12:28:48.297Z,5.97
2019-01-03T12:31:22.004Z,5.35
2019-01-03T12:33:51.752Z,3.05
2019-01-03T12:36:22.016Z,3.47
2019-01-03T12:38:51.999Z,1.27
2019-01-03T12:41:25.422Z,2.12
2019-01-03T12:43:55.617Z,3.80
2019-01-03T12:46:25.701Z,4.90
2019-01-03T12:48:55.786Z,3.42
2019-01-03T12:51:25.616Z,4.87
2019-01-03T12:53:56.244Z,5.42
2019-01-03T12:56:26.545Z,2.17
2019-01-03T12:58:56.640Z,8.38
2019-01-03T13:01:26.797Z,21.23
2019-01-03T13:03:56.696Z,5.37
2019-01-03T13:06:26.384Z,4.15
2019-01-03T13:08:58.108Z,5.80
2019-01-03T13:11:29.765Z,4.10
2019-01-03T13:13:59.456Z,3.20
2019-01-03T13:16:29.982Z,5.78
2019-01-03T13:19:00.724Z,4.50
2019-01-03T13:21:30.689Z,5.90
2019-01-03T13:24:01.576Z,5.87
2019-01-03T13:26:37.332Z,8.23
2019-01-03T13:29:07.092Z,9.75
2019-01-03T13:31:36.772Z,1.72
2019-01-03T13:34:06.452Z,8.65
2019-01-03T13:36:37.194Z,3.10
2019-01-03T13:39:14.810Z,4.75
2019-01-03T13:41:44.977Z,2.05
2019-01-03T13:44:15.088Z,3.62
2019-01-03T13:46:45.976Z,7.87
2019-01-03T13:49:19.305Z,12.35
2019-01-03T13:51:51.384Z,5.72
2019-01-03T13:54:30.944Z,6.40
2019-01-03T13:57:02.918Z,2.17
2019-01-03T13:59:36.394Z,10.35
2019-01-03T14:02:06.312Z,11.15
2019-01-03T14:04:37.121Z,4.03
2019-01-03T14:07:08.708Z,10.93
2019-01-03T14:09:38.948Z,10.72
2019-01-03T14:12:10.970Z,4.85
2019-01-03T14:14:41.048Z,2.95
2019-01-03T14:17:17.188Z,11.05
2019-01-03T14:19:48.258Z,5.65
2019-01-03T14:22:23.870Z,16.60
2019-01-03T14:24:54.510Z,2.87
2019-01-03T14:27:24.474Z,8.00
2019-01-03T14:29:54.640Z,4.22
2019-01-03T14:32:27.326Z,9.70
2019-01-03T14:34:57.483Z,5.72
2019-01-03T14:37:32.689Z,5.85
2019-01-03T14:40:02.774Z,4.17
2019-01-03T14:42:32.605Z,7.28
2019-01-03T14:45:02.292Z,13.85
2019-01-03T14:47:32.244Z,14.20
2019-01-03T14:50:07.046Z,7.12
2019-01-03T14:52:37.061Z,2.98
2019-01-03T14:55:10.504Z,5.30
2019-01-03T14:57:42.562Z,3.70
2019-01-03T15:00:19.213Z,9.85
2019-01-03T15:02:49.016Z,3.20
2019-01-03T15:05:19.895Z,6.00
2019-01-03T15:07:56.774Z,17.40
2019-01-03T15:10:26.905Z,12.03
2019-01-03T15:12:56.721Z,5.35
2019-01-03T15:15:27.293Z,14.25
2019-01-03T15:18:02.622Z,9.13
2019-01-03T15:20:39.670Z,11.70
2019-01-03T15:23:11.726Z,11.95
2019-01-03T15:25:42.567Z,6.30
2019-01-03T15:28:12.280Z,6.70
2019-01-03T15:30:42.330Z,2.95
2019-01-03T15:33:14.319Z,11.12
2019-01-03T15:35:44.301Z,19.30
2019-01-03T15:38:26.570Z,12.13
2019-01-03T15:40:56.673Z,12.85
2019-01-03T15:43:27.663Z,7.05
2019-01-03T15:45:57.779Z,17.32
2019-01-03T15:48:27.621Z,9.18
2019-01-03T15:50:57.574Z,10.82
2019-01-03T15:53:28.632Z,10.25
2019-01-03T15:56:06.337Z,12.45
2019-01-03T15:58:38.285Z,7.45
2019-01-03T16:01:09.137Z,12.78
2019-01-03T16:03:39.110Z,7.55
2019-01-03T16:06:08.933Z,8.80
2019-01-03T16:08:43.857Z,10.53
2019-01-03T16:11:20.697Z,12.25
2019-01-03T16:14:00.889Z,12.35
2019-01-03T16:16:31.993Z,11.20
2019-01-03T16:19:02.055Z,8.38
2019-01-03T16:21:31.906Z,13.70
2019-01-03T16:24:02.633Z,20.02
2019-01-03T16:26:32.393Z,14.80
2019-01-03T16:29:02.364Z,19.67
2019-01-03T16:31:33.463Z,7.33
2019-01-03T16:34:04.249Z,6.47
2019-01-03T16:36:34.224Z,10.15
2019-01-03T16:39:05.273Z,5.78
2019-01-03T16:41:36.961Z,13.35
2019-01-03T16:44:08.889Z,6.00
2019-01-03T16:46:39.085Z,14.53
2019-01-03T16:49:09.233Z,11.63
2019-01-03T16:51:39.329Z,14.90
2019-01-03T16:54:09.534Z,11.08
2019-01-03T16:56:41.377Z,13.30
2019-01-03T16:59:11.089Z,7.78
2019-01-03T17:01:43.509Z,9.60
2019-01-03T17:04:13.293Z,9.60
2019-01-03T17:06:42.993Z,14.75
2019-01-03T17:09:13.853Z,12.90
2019-01-03T17:11:43.921Z,7.58
2019-01-03T17:14:13.833Z,16.55
2019-01-03T17:16:43.593Z,15.78
2019-01-03T17:19:13.561Z,11.97
2019-01-03T17:21:43.651Z,10.50
2019-01-03T17:24:14.418Z,11.50
2019-01-03T17:26:44.137Z,10.90
2019-01-03T17:29:14.314Z,8.60
2019-01-03T17:31:44.185Z,22.45
2019-01-03T17:34:14.359Z,12.00
2019-01-03T17:36:45.125Z,10.38
2019-01-03T17:39:15.149Z,12.50
2019-01-03T17:41:45.043Z,15.93
2019-01-03T17:44:14.751Z,16.70
2019-01-03T17:46:44.593Z,13.00
2019-01-03T17:49:15.289Z,17.02
2019-01-03T17:51:47.217Z,13.72
2019-01-03T17:54:17.798Z,17.57
2019-01-03T17:56:47.750Z,9.25
2019-01-03T17:59:18.485Z,11.85
2019-01-03T18:01:48.486Z,14.18
2019-01-03T18:04:23.433Z,9.55
2019-01-03T18:06:53.483Z,13.25
2019-01-03T18:09:24.598Z,15.00
2019-01-03T18:11:59.093Z,19.23
2019-01-03T18:14:28.846Z,10.65
2019-01-03T18:16:58.795Z,7.08
2019-01-03T18:19:30.977Z,10.70
2019-01-03T18:22:03.133Z,17.02
2019-01-03T18:24:33.249Z,9.95
2019-01-03T18:27:03.361Z,11.33
2019-01-03T18:29:34.224Z,13.48
2019-01-03T18:32:04.672Z,11.35
2019-01-03T18:34:37.561Z,12.65
2019-01-03T18:37:07.731Z,10.53
2019-01-03T18:39:38.556Z,12.13
2019-01-03T18:42:09.190Z,10.15
2019-01-03T18:44:40.277Z,18.40
2019-01-03T18:47:16.214Z,16.07
2019-01-03T18:49:47.005Z,12.23
2019-01-03T18:52:17.305Z,12.75
2019-01-03T18:54:47.183Z,13.58
2019-01-03T18:57:16.881Z,15.00
2019-01-03T18:59:46.861Z,12.93
2019-01-03T19:02:17.965Z,11.48
2019-01-03T19:04:48.067Z,13.28
2019-01-03T19:07:17.901Z,25.88
2019-01-03T19:09:47.598Z,11.93
2019-01-03T19:12:17.556Z,17.40
2019-01-03T19:14:49.589Z,16.00
2019-01-03T19:17:21.661Z,13.83
2019-01-03T19:19:58.505Z,10.15
2019-01-03T19:22:28.213Z,10.90
2019-01-03T19:24:59.217Z,22.17
2019-01-03T19:27:29.194Z,23.77
2019-01-03T19:29:58.922Z,20.40
2019-01-03T19:32:28.903Z,24.12
2019-01-03T19:34:58.769Z,13.93
2019-01-03T19:37:28.476Z,14.10
2019-01-03T19:39:59.381Z,8.95
2019-01-03T19:42:31.453Z,13.65
2019-01-03T19:45:10.610Z,19.95
2019-01-03T19:47:42.277Z,11.00
2019-01-03T19:50:17.286Z,16.42
2019-01-03T19:52:47.130Z,14.43
2019-01-03T19:55:18.101Z,20.55
2019-01-03T19:57:48.969Z,16.52
2019-01-03T20:00:18.793Z,16.05
2019-01-03T20:02:51.613Z,10.63
2019-01-03T20:05:21.597Z,19.95
2019-01-03T20:07:51.321Z,14.45
2019-01-03T20:10:21.345Z,17.42
2019-01-03T20:12:52.445Z,13.10
2019-01-03T20:15:22.649Z,12.15
2019-01-03T20:17:53.462Z,12.23
2019-01-03T20:20:23.413Z,12.95
2019-01-03T20:22:53.669Z,11.88
2019-01-03T20:25:23.587Z,15.15
2019-01-03T20:27:53.329Z,27.58
2019-01-03T20:30:23.373Z,27.48
2019-01-03T20:32:53.345Z,9.45
2019-01-03T20:35:25.189Z,10.88
2019-01-03T20:37:54.905Z,48.25
2019-01-03T20:40:24.777Z,29.67
2019-01-03T20:43:03.952Z,14.68
2019-01-03T20:45:33.699Z,12.23
2019-01-03T20:48:08.505Z,14.50
2019-01-03T20:50:38.557Z,16.70
2019-01-03T20:53:08.761Z,10.25
2019-01-03T20:55:38.874Z,18.40
2019-01-03T20:58:09.697Z,17.60
2019-01-03T21:00:41.614Z,10.13
2019-01-03T21:03:12.731Z,29.52
2019-01-03T21:05:43.888Z,8.60
2019-01-03T21:08:14.014Z,16.62
2019-01-03T21:10:43.869Z,12.98
2019-01-03T21:13:17.665Z,11.75
2019-01-03T21:15:47.665Z,12.88
2019-01-03T21:18:17.797Z,11.10
2019-01-03T21:20:53.702Z,8.05
2019-01-03T21:23:24.302Z,12.10
2019-01-03T21:26:00.379Z,12.53
2019-01-03T21:28:36.014Z,15.13
2019-01-03T21:31:11.767Z,12.70
2019-01-03T21:33:41.857Z,10.38
2019-01-03T21:36:12.689Z,14.35
2019-01-03T21:38:42.445Z,16.27
2019-01-03T21:41:12.209Z,15.60
2019-01-03T21:43:42.182Z,12.18
2019-01-03T21:46:12.405Z,35.78
2019-01-03T21:48:43.445Z,20.57
2019-01-03T21:51:13.353Z,16.62
2019-01-03T21:53:44.049Z,11.55
2019-01-03T21:56:15.006Z,14.78
2019-01-03T21:58:45.837Z,6.90
2019-01-03T22:01:22.833Z,15.43
2019-01-03T22:03:52.947Z,7.90
2019-01-03T22:06:25.014Z,14.98
2019-01-03T22:08:54.873Z,14.95
2019-01-03T22:11:24.588Z,20.85
2019-01-03T22:13:56.501Z,14.63
2019-01-03T22:16:26.205Z,18.50
2019-01-03T22:18:58.179Z,20.68
2019-01-03T22:21:28.287Z,12.93
2019-01-03T22:23:58.400Z,12.80
2019-01-03T22:26:28.491Z,15.13
2019-01-03T22:29:00.105Z,11.40
2019-01-03T22:31:30.465Z,13.25
2019-01-03T22:34:00.217Z,14.83
2019-01-03T22:37:01.697Z,14.30
2019-01-03T22:39:36.745Z,18.65
2019-01-03T22:42:09.927Z,9.70
2019-01-03T22:44:41.786Z,17.02
2019-01-03T22:47:13.181Z,18.30
2019-01-03T22:49:42.874Z,11.80
2019-01-03T22:52:12.569Z,13.25
2019-01-03T22:54:42.420Z,17.70
2019-01-03T22:57:13.739Z,9.15
2019-01-03T22:59:43.529Z,10.15
2019-01-03T23:02:13.321Z,9.85
2019-01-03T23:04:48.919Z,9.78
2019-01-03T23:07:14.473Z,7.58
2019-01-03T23:09:44.221Z,15.28
2019-01-03T23:12:14.283Z,9.33
2019-01-03T23:14:44.280Z,14.93
2019-01-03T23:17:18.089Z,16.00
2019-01-03T23:19:47.915Z,8.70
2019-01-03T23:22:20.899Z,14.28
2019-01-03T23:24:51.051Z,13.95
2019-01-03T23:27:21.957Z,21.70
2019-01-03T23:29:59.053Z,16.15
2019-01-03T23:32:28.965Z,9.43
2019-01-03T23:35:04.893Z,21.80
2019-01-03T23:37:34.958Z,12.80
2019-01-03T23:40:06.322Z,9.10
2019-01-03T23:42:37.511Z,9.95
2019-01-03T23:45:21.646Z,16.37
2019-01-03T23:47:52.785Z,11.28
2019-01-03T23:50:30.011Z,12.10
2019-01-03T23:53:00.231Z,9.60
2019-01-03T23:55:32.213Z,15.13
2019-01-03T23:58:02.869Z,21.35
